createdAt,value
2023-03-06T09:31:40.758Z,-12.46
2023-03-06T09:36:56.616Z,-12.20
2023-03-06T09:42:00.809Z,-12.03
2023-03-06T09:47:18.982Z,-12.06
2023-03-06T09:52:31.479Z,-12.18
2023-03-06T09:57:37.375Z,-12.19
2023-03-06T10:02:45.339Z,-12.13
2023-03-06T10:07:54.309Z,-11.92
2023-03-06T10:13:03.636Z,-11.89
2023-03-06T10:18:07.106Z,-11.83
2023-03-06T10:23:20.829Z,-11.97
2023-03-06T10:28:29.126Z,-11.83
2023-03-06T10:33:36.415Z,-11.80
2023-03-06T10:38:42.780Z,-11.88
2023-03-06T10:43:47.113Z,-12.02
2023-03-06T10:48:58.593Z,-12.06
2023-03-06T10:54:05.141Z,-11.82
2023-03-06T10:59:09.696Z,-11.97
2023-03-06T11:04:24.224Z,-11.89
2023-03-06T11:09:29.066Z,-11.54
2023-03-06T11:14:32.569Z,-10.87
2023-03-06T11:19:36.058Z,-11.05
2023-03-06T11:24:43.704Z,-11.02
2023-03-06T11:29:51.390Z,-10.43
2023-03-06T11:34:59.578Z,-11.25
2023-03-06T11:40:07.654Z,-11.62
2023-03-06T11:45:25.298Z,-11.22
2023-03-06T11:50:32.158Z,-11.03
2023-03-06T11:55:50.696Z,-11.21
2023-03-06T12:01:00.197Z,-10.90
2023-03-06T12:06:05.311Z,-11.08
2023-03-06T12:11:13.260Z,-11.12
2023-03-06T12:16:32.833Z,-11.12
2023-03-06T12:21:44.090Z,-10.99
2023-03-06T12:27:01.745Z,-11.04
2023-03-06T12:32:24.169Z,-11.16
2023-03-06T12:37:34.299Z,-11.08
2023-03-06T12:42:49.975Z,-11.67
2023-03-06T12:47:56.251Z,-11.06
2023-03-06T12:53:01.818Z,-11.40
2023-03-06T12:58:20.163Z,-11.42
2023-03-06T13:03:27.606Z,-11.27
2023-03-06T13:08:45.990Z,-11.60
2023-03-06T13:13:52.065Z,-11.28
2023-03-06T13:19:02.078Z,-11.18
2023-03-06T13:24:06.777Z,-11.18
2023-03-06T13:29:24.969Z,-11.54
2023-03-06T13:34:36.277Z,-11.54
2023-03-06T13:39:54.459Z,-11.67
2023-03-06T13:44:58.583Z,-11.42
2023-03-06T13:50:12.653Z,-11.18
2023-03-06T13:55:25.288Z,-11.98
2023-03-06T14:00:32.740Z,-12.34
2023-03-06T14:05:44.248Z,-11.94
2023-03-06T14:10:48.533Z,-12.04
2023-03-06T14:15:54.776Z,-11.63
2023-03-06T14:21:01.200Z,-11.65
2023-03-06T14:26:07.570Z,-11.49
2023-03-06T14:31:14.960Z,-11.54
2023-03-06T14:36:21.041Z,-11.85
2023-03-06T14:41:25.569Z,-12.04
2023-03-06T14:46:31.299Z,-12.33
2023-03-06T14:51:38.347Z,-13.01
2023-03-06T14:56:42.925Z,-12.86
2023-03-06T15:01:48.676Z,-13.19
2023-03-06T15:06:53.819Z,-13.18
2023-03-06T15:11:58.734Z,-12.90
2023-03-06T15:17:26.360Z,-12.72
2023-03-06T15:22:32.754Z,-12.79
2023-03-06T15:27:38.703Z,-12.58
2023-03-06T15:32:42.883Z,-13.06
2023-03-06T15:37:49.652Z,-12.89
2023-03-06T15:42:53.199Z,-12.75
2023-03-06T15:47:57.431Z,-12.75
2023-03-06T15:53:02.359Z,-12.76
2023-03-06T15:58:09.283Z,-12.83
2023-03-06T16:03:13.675Z,-13.01
2023-03-06T16:08:18.596Z,-13.10
2023-03-06T16:13:25.543Z,-13.11
2023-03-06T16:18:31.125Z,-13.24
2023-03-06T16:23:39.266Z,-13.37
2023-03-06T16:28:42.675Z,-13.50
2023-03-06T16:33:46.171Z,-13.72
2023-03-06T16:38:51.268Z,-13.85
2023-03-06T16:43:54.610Z,-14.01
2023-03-06T16:48:57.925Z,-14.20
2023-03-06T16:54:05.265Z,-14.41
2023-03-06T16:59:08.666Z,-14.61
2023-03-06T17:04:12.064Z,-14.76
2023-03-06T17:09:19.765Z,-14.89
2023-03-06T17:14:23.073Z,-15.67
2023-03-06T17:19:29.251Z,-15.19
2023-03-06T17:24:37.162Z,-15.28
2023-03-06T17:29:40.418Z,-15.34
2023-03-06T17:34:43.944Z,-15.39
2023-03-06T17:39:49.793Z,-15.43
2023-03-06T17:44:53.380Z,-15.47
2023-03-06T17:49:56.705Z,-15.51
2023-03-06T17:55:04.459Z,-15.69
2023-03-06T18:00:08.742Z,-15.77
2023-03-06T18:05:20.819Z,-15.82
2023-03-06T18:10:25.698Z,-15.94
2023-03-06T18:15:31.503Z,-15.95
2023-03-06T18:20:34.836Z,-16.02
2023-03-06T18:25:39.725Z,-16.07
2023-03-06T18:30:43.462Z,-16.16
2023-03-06T18:35:49.394Z,-16.23
2023-03-06T18:40:54.291Z,-16.32
2023-03-06T18:45:57.854Z,-16.40
2023-03-06T18:51:04.643Z,-16.48
2023-03-06T18:56:10.829Z,-16.49
2023-03-06T19:01:14.448Z,-16.57
2023-03-06T19:06:19.295Z,-16.60
2023-03-06T19:11:29.646Z,-16.65
2023-03-06T19:16:35.073Z,-16.78
2023-03-06T19:21:39.015Z,-16.81
2023-03-06T19:26:44.425Z,-16.83
2023-03-06T19:31:52.393Z,-16.86
2023-03-06T19:36:55.892Z,-16.89
2023-03-06T19:42:01.287Z,-16.94
2023-03-06T19:47:05.551Z,-16.97
2023-03-06T19:52:08.971Z,-16.95
2023-03-06T19:57:16.392Z,-16.99
2023-03-06T20:02:26.475Z,-17.07
2023-03-06T20:07:34.030Z,-17.05
2023-03-06T20:12:38.964Z,-17.05
2023-03-06T20:17:42.411Z,-17.08
2023-03-06T20:22:46.070Z,-17.12
2023-03-06T20:27:50.982Z,-17.11
2023-03-06T20:32:58.328Z,-17.15
2023-03-06T20:38:02.102Z,-17.16
2023-03-06T20:43:07.231Z,-17.20
2023-03-06T20:48:11.126Z,-17.17
2023-03-06T20:53:14.798Z,-17.16
2023-03-06T20:58:21.400Z,-17.13
2023-03-06T21:03:25.447Z,-17.17
2023-03-06T21:08:30.597Z,-17.21
2023-03-06T21:13:35.470Z,-17.23
2023-03-06T21:18:39.960Z,-17.22
2023-03-06T21:23:43.737Z,-17.25
2023-03-06T21:28:48.703Z,-17.27
2023-03-06T21:33:52.621Z,-17.24
2023-03-06T21:38:56.484Z,-17.23
2023-03-06T21:44:02.807Z,-17.19
2023-03-06T21:49:06.334Z,-17.22
2023-03-06T21:54:09.900Z,-17.24
2023-03-06T21:59:15.333Z,-17.27
2023-03-06T22:04:21.614Z,-17.27
2023-03-06T22:09:25.326Z,-17.28
2023-03-06T22:14:30.184Z,-17.33
2023-03-06T22:19:34.275Z,-17.36
2023-03-06T22:24:37.773Z,-17.43
2023-03-06T22:29:44.587Z,-17.47
2023-03-06T22:34:48.138Z,-17.49
2023-03-06T22:39:51.581Z,-17.53
2023-03-06T22:44:58.616Z,-17.57
2023-03-06T22:50:02.025Z,-17.56
2023-03-06T22:55:05.800Z,-17.57
